Des Moines International Airport
KDSM : now visible

Airfield :











YOU CAN JOIN US ON...

 
LOGIN :

Register | Disclaimer

   EN    FR    IT 

 









Legend :    VFR   Marginal VFR   IFR   Intensive IFR   Very Intensive IFR
Visi :
Ceiling :
>= 8 km
>= 3000ft
5 to 8 km
1000 to 3000 ft
1500m to 5 km
500 to 1000 ft
800 to 1500m
200 to 500 ft
< 800m
< 200 ft
Symbols :   Thunderstorms  Fog  Heavy snow  Heavy precipitations  Wind > 20 kt






- Airport Elevation : 958 ft
- IATA code : DSM


KDSM - Des Moines International

CURRENT METAR :
  • 142054Z 29010KT 10SM CLR M01/M07 A3033 RMK AO2 SLP281 T10111072 53001

EXPIRED METARs :
  • 141954Z 29009KT 10SM FEW025 M02/M08 A3032 RMK AO2 SLP278 T10171078
  • 141854Z 33010KT 10SM CLR M02/M08 A3033 RMK AO2 SLP282 T10221083

TAF KDSM
Valid from the 14 at 18:00 until the 15 at 18:00 UTC


141727Z 1418/1518 31008KT P6SM FEW020
FM150000 22005KT P6SM SKC
FM151400 19005KT P6SM SCT250



MET'MAP, your aeronautical weather chart ! - Copyright ORBIFLY December 2007 - Disclaimer

ORBIFLY MET'MAP TEAM :

Programming & Development : Alexandra Zaïnal
Concept & Development : Baudouin d'Aumeries
Co-Development & Prog : Marc-Olivier Méhu
Technical & hardware support : Manuel Goepfert

Contact : metmap@orbifly.com




SOURCES & CREDITS :

   NOAA       Earth
Advisory